createdAt,value
2018-08-20T00:01:52.730Z,15.47
2018-08-20T00:04:21.526Z,16.43
2018-08-20T00:06:55.574Z,15.73
2018-08-20T00:09:35.551Z,15.77
2018-08-20T00:12:05.559Z,15.30
2018-08-20T00:14:34.389Z,16.90
2018-08-20T00:17:03.265Z,15.77
2018-08-20T00:19:32.154Z,15.90
2018-08-20T00:22:01.192Z,15.20
2018-08-20T00:24:30.037Z,15.40
2018-08-20T00:27:01.509Z,15.43
2018-08-20T00:29:30.374Z,16.63
2018-08-20T00:31:59.201Z,15.00
2018-08-20T00:34:28.141Z,15.07
2018-08-20T00:36:56.976Z,15.63
2018-08-20T00:39:25.804Z,15.83
2018-08-20T00:41:55.224Z,15.67
2018-08-20T00:44:24.044Z,15.27
2018-08-20T00:46:52.856Z,14.23
2018-08-20T00:49:21.735Z,14.80
2018-08-20T00:51:50.573Z,14.30
2018-08-20T00:54:19.393Z,15.67
2018-08-20T00:56:48.316Z,14.73
2018-08-20T00:59:17.137Z,15.23
2018-08-20T01:01:45.965Z,15.53
2018-08-20T01:04:15.056Z,16.37
2018-08-20T01:06:43.884Z,15.90
2018-08-20T01:09:12.712Z,16.07
2018-08-20T01:11:41.930Z,15.40
2018-08-20T01:14:10.751Z,15.77
2018-08-20T01:16:39.643Z,16.20
2018-08-20T01:19:08.511Z,15.03
2018-08-20T01:21:37.311Z,15.27
2018-08-20T01:24:06.158Z,14.93
2018-08-20T01:26:35.017Z,14.87
2018-08-20T01:29:03.859Z,15.77
2018-08-20T01:31:32.678Z,16.10
2018-08-20T01:34:01.560Z,16.20
2018-08-20T01:36:30.372Z,15.37
2018-08-20T01:38:59.208Z,15.60
2018-08-20T01:41:28.067Z,16.40
2018-08-20T01:43:57.100Z,15.57
2018-08-20T01:46:25.924Z,15.80
2018-08-20T01:48:54.882Z,15.60
2018-08-20T01:51:23.697Z,15.43
2018-08-20T01:53:52.514Z,16.00
2018-08-20T01:56:21.420Z,15.67
2018-08-20T01:58:50.276Z,16.00
2018-08-20T02:01:19.105Z,15.10
2018-08-20T02:03:48.053Z,16.13
2018-08-20T02:06:16.880Z,15.07
2018-08-20T02:08:45.756Z,15.30
2018-08-20T02:11:14.691Z,15.13
2018-08-20T02:13:43.520Z,16.53
2018-08-20T02:16:12.347Z,14.63
2018-08-20T02:18:41.284Z,15.97
2018-08-20T02:21:10.177Z,15.53
2018-08-20T02:23:38.997Z,15.70
2018-08-20T02:26:08.092Z,16.17
2018-08-20T02:28:36.918Z,15.83
2018-08-20T02:31:05.800Z,15.37
2018-08-20T02:33:34.656Z,15.77
2018-08-20T02:36:03.489Z,15.83
2018-08-20T02:38:32.309Z,15.83
2018-08-20T02:41:01.228Z,16.33
2018-08-20T02:43:30.066Z,15.73
2018-08-20T02:45:58.885Z,17.90
2018-08-20T02:48:27.763Z,16.30
2018-08-20T02:50:56.612Z,15.23
2018-08-20T02:53:25.439Z,15.23
2018-08-20T02:55:54.437Z,14.90
2018-08-20T02:58:23.254Z,15.07
2018-08-20T03:00:52.072Z,16.97
2018-08-20T03:03:21.008Z,15.97
2018-08-20T03:05:49.826Z,16.27
2018-08-20T03:08:18.658Z,14.80
2018-08-20T03:10:47.506Z,16.77
2018-08-20T03:13:16.316Z,15.20
2018-08-20T03:15:45.150Z,16.20
2018-08-20T03:18:14.067Z,15.73
2018-08-20T03:20:42.889Z,15.90
2018-08-20T03:23:11.695Z,15.67
2018-08-20T03:25:40.581Z,15.77
2018-08-20T03:28:09.399Z,20.30
2018-08-20T03:30:38.220Z,19.07
2018-08-20T03:33:07.123Z,17.57
2018-08-20T03:35:35.972Z,22.23
2018-08-20T03:38:04.785Z,21.47
2018-08-20T03:40:33.653Z,26.37
2018-08-20T03:43:02.459Z,15.90
2018-08-20T03:45:31.271Z,17.40
2018-08-20T03:48:00.141Z,19.20
2018-08-20T03:50:28.974Z,17.70
2018-08-20T03:52:57.783Z,19.83
2018-08-20T03:55:26.710Z,18.13
2018-08-20T03:57:55.703Z,19.90
2018-08-20T04:00:24.827Z,18.17
2018-08-20T04:02:53.919Z,20.00
2018-08-20T04:05:22.752Z,17.90
2018-08-20T04:07:51.570Z,17.07
2018-08-20T04:10:20.512Z,18.17
2018-08-20T04:12:49.336Z,18.70
2018-08-20T04:15:18.159Z,17.80
2018-08-20T04:17:47.081Z,18.20
2018-08-20T04:20:15.891Z,19.37
2018-08-20T04:22:44.716Z,20.23
2018-08-20T04:25:13.588Z,19.70
2018-08-20T04:27:42.572Z,17.40
2018-08-20T04:30:11.433Z,18.07
2018-08-20T04:32:40.248Z,23.37
2018-08-20T04:35:09.118Z,17.93
2018-08-20T04:37:37.946Z,17.67
2018-08-20T04:40:07.572Z,18.33
2018-08-20T04:42:36.466Z,22.47
2018-08-20T04:45:06.778Z,20.00
2018-08-20T04:47:35.675Z,22.17
2018-08-20T04:50:05.297Z,18.60
2018-08-20T04:52:34.040Z,17.93
2018-08-20T04:55:02.904Z,20.60
2018-08-20T04:57:31.829Z,19.20
2018-08-20T05:00:00.715Z,17.90
2018-08-20T05:02:29.623Z,20.97
2018-08-20T05:04:58.512Z,19.07
2018-08-20T05:07:27.392Z,18.27
2018-08-20T05:09:56.268Z,20.77
2018-08-20T05:12:25.168Z,19.00
2018-08-20T05:14:54.040Z,19.20
2018-08-20T05:17:22.950Z,25.73
2018-08-20T05:19:52.094Z,35.27
2018-08-20T05:22:20.940Z,25.63
2018-08-20T05:24:50.396Z,19.23
2018-08-20T05:27:19.433Z,22.90
2018-08-20T05:29:49.694Z,19.17
2018-08-20T05:32:18.601Z,21.47
2018-08-20T05:34:47.483Z,18.10
2018-08-20T05:37:16.331Z,29.67
2018-08-20T05:39:45.281Z,21.73
2018-08-20T05:42:14.159Z,22.10
2018-08-20T05:44:42.986Z,21.63
2018-08-20T05:47:11.803Z,20.47
2018-08-20T05:49:40.753Z,21.53
2018-08-20T05:52:09.559Z,21.67
2018-08-20T05:54:38.444Z,21.40
2018-08-20T05:57:07.348Z,24.53
2018-08-20T05:59:36.220Z,20.03
2018-08-20T06:02:05.055Z,23.20
2018-08-20T06:04:33.954Z,20.13
2018-08-20T06:07:02.823Z,24.50
2018-08-20T06:09:31.696Z,27.80
2018-08-20T06:12:00.571Z,29.98
2018-08-20T06:14:29.438Z,32.67
2018-08-20T06:16:58.360Z,21.48
2018-08-20T06:19:27.364Z,29.70
2018-08-20T06:21:56.210Z,24.52
2018-08-20T06:24:25.048Z,23.27
2018-08-20T06:26:54.011Z,27.13
2018-08-20T06:29:22.886Z,34.43
2018-08-20T06:31:51.821Z,27.48
2018-08-20T06:34:20.811Z,22.90
2018-08-20T06:36:49.669Z,22.25
2018-08-20T06:39:18.534Z,24.30
2018-08-20T06:41:47.497Z,27.73
2018-08-20T06:44:16.346Z,24.25
2018-08-20T06:46:45.182Z,23.93
2018-08-20T06:49:14.105Z,27.80
2018-08-20T06:51:42.939Z,25.10
2018-08-20T06:54:11.891Z,25.35
2018-08-20T06:56:40.824Z,27.25
2018-08-20T06:59:09.699Z,31.73
2018-08-20T07:01:39.194Z,20.17
2018-08-20T07:04:08.392Z,13.90
2018-08-20T07:06:37.302Z,19.67
2018-08-20T07:09:07.992Z,19.23
2018-08-20T07:11:36.952Z,19.40
2018-08-20T07:14:05.818Z,15.35
2018-08-20T07:16:34.746Z,13.98
2018-08-20T07:19:03.798Z,15.85
2018-08-20T07:21:32.675Z,19.02
2018-08-20T07:24:02.752Z,20.17
2018-08-20T07:26:31.615Z,15.68
2018-08-20T07:29:00.480Z,19.07
2018-08-20T07:31:29.373Z,23.18
2018-08-20T07:33:58.299Z,21.60
2018-08-20T07:36:27.535Z,17.45
2018-08-20T07:38:56.534Z,19.20
2018-08-20T07:41:25.396Z,16.55
2018-08-20T07:43:54.306Z,14.28
2018-08-20T07:46:23.152Z,15.30
2018-08-20T07:48:52.001Z,12.13
2018-08-20T07:51:20.891Z,15.43
2018-08-20T07:53:49.804Z,21.68
2018-08-20T07:56:18.850Z,13.53
2018-08-20T07:58:47.781Z,13.28
2018-08-20T08:01:16.662Z,12.13
2018-08-20T08:03:45.603Z,12.00
2018-08-20T08:06:15.637Z,13.30
2018-08-20T08:08:45.159Z,14.98
2018-08-20T08:11:15.073Z,10.95
2018-08-20T08:13:43.946Z,11.15
2018-08-20T08:16:12.793Z,11.57
2018-08-20T08:18:41.796Z,10.40
2018-08-20T08:21:10.731Z,14.47
2018-08-20T08:23:39.575Z,12.60
2018-08-20T08:26:08.420Z,11.20
2018-08-20T08:28:37.279Z,12.43
2018-08-20T08:31:06.233Z,16.00
2018-08-20T08:33:35.054Z,15.28
2018-08-20T08:36:03.908Z,10.03
2018-08-20T08:38:33.129Z,11.97
2018-08-20T08:41:01.970Z,10.58
2018-08-20T08:43:31.737Z,12.05
2018-08-20T08:46:00.591Z,17.35
2018-08-20T08:48:29.494Z,13.95
2018-08-20T08:50:58.362Z,13.38
2018-08-20T08:53:27.308Z,12.78
2018-08-20T08:55:56.162Z,18.80
2018-08-20T08:58:25.060Z,13.35
2018-08-20T09:00:53.965Z,13.32
2018-08-20T09:03:22.936Z,17.30
2018-08-20T09:05:51.881Z,14.07
2018-08-20T09:08:20.783Z,13.25
2018-08-20T09:10:49.736Z,13.95
2018-08-20T09:13:18.621Z,14.28
2018-08-20T09:15:47.539Z,13.45
2018-08-20T09:18:16.511Z,13.80
2018-08-20T09:20:45.377Z,13.05
2018-08-20T09:23:14.195Z,13.13
2018-08-20T09:25:43.063Z,13.18
2018-08-20T09:28:11.891Z,13.30
2018-08-20T09:30:40.754Z,13.98
2018-08-20T09:33:09.733Z,13.25
2018-08-20T09:35:39.320Z,13.95
2018-08-20T09:38:08.167Z,15.03
2018-08-20T09:40:37.028Z,12.78
2018-08-20T09:43:05.949Z,13.80
2018-08-20T09:45:35.844Z,12.88
2018-08-20T09:48:04.721Z,14.00
2018-08-20T09:50:33.659Z,12.73
2018-08-20T09:53:02.529Z,13.00
2018-08-20T09:55:31.394Z,12.58
2018-08-20T09:58:00.903Z,13.50
2018-08-20T10:00:34.912Z,12.10
2018-08-20T10:03:04.360Z,15.25
2018-08-20T10:05:33.216Z,12.10
2018-08-20T10:08:02.293Z,11.55
2018-08-20T10:10:31.139Z,13.05
2018-08-20T10:12:59.969Z,11.57
2018-08-20T10:15:28.819Z,12.18
2018-08-20T10:17:58.001Z,14.58
2018-08-20T10:20:26.888Z,11.80
2018-08-20T10:22:55.701Z,11.55
2018-08-20T10:25:24.544Z,12.15
2018-08-20T10:27:53.433Z,11.97
2018-08-20T10:30:22.707Z,13.38
2018-08-20T10:32:51.692Z,11.05
2018-08-20T10:35:20.523Z,13.32
2018-08-20T10:37:49.477Z,13.43
2018-08-20T10:40:18.373Z,12.15
2018-08-20T10:42:47.191Z,12.05
2018-08-20T10:45:18.464Z,11.43
2018-08-20T10:47:48.686Z,11.43
2018-08-20T10:50:19.995Z,11.93
2018-08-20T10:52:51.447Z,12.55
2018-08-20T10:55:20.415Z,11.65
2018-08-20T10:57:49.244Z,12.47
2018-08-20T11:00:18.576Z,11.10
2018-08-20T11:02:47.411Z,10.30
2018-08-20T11:05:18.292Z,12.95
2018-08-20T11:07:47.348Z,11.73
2018-08-20T11:10:16.359Z,10.03
2018-08-20T11:12:45.365Z,9.98
2018-08-20T11:15:14.182Z,9.98
2018-08-20T11:17:43.130Z,10.95
2018-08-20T11:20:16.127Z,11.03
2018-08-20T11:22:46.104Z,12.65
2018-08-20T11:25:14.940Z,11.45
2018-08-20T11:27:43.814Z,9.85
2018-08-20T11:30:14.248Z,9.90
2018-08-20T11:32:43.074Z,9.70
2018-08-20T11:35:12.643Z,9.48
2018-08-20T11:37:41.632Z,8.68
2018-08-20T11:40:10.497Z,8.73
2018-08-20T11:42:39.504Z,12.82
2018-08-20T11:45:10.992Z,8.65
2018-08-20T11:47:39.896Z,12.43
2018-08-20T11:50:08.890Z,11.20
2018-08-20T11:52:39.756Z,10.82
2018-08-20T11:55:09.443Z,10.28
2018-08-20T11:57:38.376Z,9.88
2018-08-20T12:00:09.334Z,9.43
2018-08-20T12:02:38.296Z,9.38
2018-08-20T12:05:07.900Z,8.88
2018-08-20T12:07:37.201Z,9.18
2018-08-20T12:10:07.496Z,13.93
2018-08-20T12:12:36.550Z,11.65
2018-08-20T12:15:06.951Z,11.10
2018-08-20T12:17:35.924Z,10.45
2018-08-20T12:20:06.025Z,12.43
2018-08-20T12:22:34.916Z,10.55
2018-08-20T12:25:04.776Z,12.05
2018-08-20T12:27:33.751Z,8.98
2018-08-20T12:30:02.656Z,10.13
2018-08-20T12:32:31.476Z,10.05
2018-08-20T12:35:00.337Z,14.43
2018-08-20T12:37:29.642Z,11.97
2018-08-20T12:39:58.468Z,9.95
2018-08-20T12:42:27.404Z,10.18
2018-08-20T12:44:56.260Z,8.98
2018-08-20T12:47:25.168Z,10.98
2018-08-20T12:49:54.045Z,10.30
2018-08-20T12:52:22.875Z,9.63
2018-08-20T12:54:51.960Z,11.35
2018-08-20T12:57:20.965Z,9.50
2018-08-20T12:59:54.006Z,17.12
2018-08-20T13:02:23.221Z,9.88
2018-08-20T13:04:52.454Z,9.90
2018-08-20T13:07:22.397Z,9.58
2018-08-20T13:09:51.264Z,8.85
2018-08-20T13:12:20.122Z,8.63
2018-08-20T13:14:49.270Z,8.40
2018-08-20T13:17:18.717Z,8.33
2018-08-20T13:19:47.556Z,7.85
2018-08-20T13:22:17.128Z,8.30
2018-08-20T13:24:46.084Z,7.80
2018-08-20T13:27:14.908Z,7.75
2018-08-20T13:29:43.799Z,8.93
2018-08-20T13:32:12.607Z,7.78
2018-08-20T13:34:41.597Z,7.05
2018-08-20T13:37:10.607Z,7.70
2018-08-20T13:39:39.503Z,8.45
2018-08-20T13:42:08.500Z,7.60
2018-08-20T13:44:37.355Z,6.58
2018-08-20T13:47:06.819Z,6.92
2018-08-20T13:49:35.713Z,7.50
2018-08-20T13:52:04.680Z,5.72
2018-08-20T13:54:33.655Z,6.62
2018-08-20T13:57:02.579Z,6.80
2018-08-20T13:59:31.458Z,8.08
2018-08-20T14:02:00.390Z,5.80
2018-08-20T14:04:29.263Z,6.30
2018-08-20T14:06:58.484Z,6.75
2018-08-20T14:09:27.409Z,5.95
2018-08-20T14:11:56.242Z,6.10
2018-08-20T14:14:25.072Z,7.92
2018-08-20T14:16:53.971Z,8.00
2018-08-20T14:19:22.840Z,6.60
2018-08-20T14:21:51.813Z,6.00
2018-08-20T14:24:20.643Z,6.30
2018-08-20T14:26:49.459Z,6.30
2018-08-20T14:29:18.321Z,8.73
2018-08-20T14:31:47.398Z,5.70
2018-08-20T14:34:16.325Z,6.62
2018-08-20T14:36:45.271Z,8.93
2018-08-20T14:39:14.145Z,9.90
2018-08-20T14:41:42.959Z,9.55
2018-08-20T14:44:11.868Z,10.53
2018-08-20T14:46:40.713Z,9.58
2018-08-20T14:49:10.848Z,6.30
2018-08-20T14:51:39.755Z,10.45
2018-08-20T14:54:08.647Z,9.00
2018-08-20T14:56:37.472Z,10.28
2018-08-20T14:59:06.944Z,10.53
2018-08-20T15:01:35.895Z,9.95
2018-08-20T15:04:04.733Z,20.10
2018-08-20T15:06:34.104Z,17.35
2018-08-20T15:09:03.089Z,7.65
2018-08-20T15:11:31.956Z,8.90
2018-08-20T15:14:00.817Z,10.20
2018-08-20T15:16:29.820Z,7.58
2018-08-20T15:18:58.648Z,9.53
2018-08-20T15:21:27.500Z,7.28
2018-08-20T15:23:56.363Z,6.62
2018-08-20T15:26:25.256Z,7.22
2018-08-20T15:28:54.103Z,9.15
2018-08-20T15:31:22.995Z,10.35
2018-08-20T15:33:51.999Z,5.83
2018-08-20T15:36:20.823Z,6.22
2018-08-20T15:38:49.672Z,6.40
2018-08-20T15:41:18.646Z,8.05
2018-08-20T15:43:47.521Z,5.62
2018-08-20T15:46:16.409Z,5.60
2018-08-20T15:48:45.923Z,7.78
2018-08-20T15:51:14.807Z,6.45
2018-08-20T15:53:43.788Z,6.17
2018-08-20T15:56:12.696Z,5.33
2018-08-20T15:58:41.559Z,7.78
2018-08-20T16:01:10.425Z,5.35
2018-08-20T16:03:39.376Z,8.80
2018-08-20T16:06:08.235Z,5.15
2018-08-20T16:08:43.452Z,6.15
2018-08-20T16:11:12.341Z,5.25
2018-08-20T16:13:41.252Z,9.43
2018-08-20T16:16:10.109Z,6.45
2018-08-20T16:18:39.036Z,6.28
2018-08-20T16:21:07.927Z,5.72
2018-08-20T16:23:37.799Z,8.28
2018-08-20T16:26:07.722Z,15.58
2018-08-20T16:28:36.538Z,8.80
2018-08-20T16:31:05.396Z,6.85
2018-08-20T16:33:34.342Z,6.85
2018-08-20T16:36:03.201Z,5.28
2018-08-20T16:38:32.165Z,6.30
2018-08-20T16:41:01.130Z,8.30
2018-08-20T16:43:30.105Z,5.47
2018-08-20T16:45:58.967Z,9.88
2018-08-20T16:48:27.861Z,5.87
2018-08-20T16:50:56.769Z,8.40
2018-08-20T16:53:26.715Z,7.45
2018-08-20T16:55:55.602Z,8.53
2018-08-20T16:58:24.432Z,6.97
2018-08-20T17:00:53.947Z,8.10
2018-08-20T17:03:23.669Z,7.25
2018-08-20T17:05:52.528Z,10.10
2018-08-20T17:08:26.620Z,11.53
2018-08-20T17:10:55.611Z,10.90
2018-08-20T17:13:24.454Z,8.95
2018-08-20T17:15:53.318Z,9.25
2018-08-20T17:18:22.451Z,11.57
2018-08-20T17:20:51.379Z,13.20
2018-08-20T17:23:22.767Z,10.75
2018-08-20T17:25:55.144Z,11.30
2018-08-20T17:28:25.379Z,13.60
2018-08-20T17:30:57.378Z,11.90
2018-08-20T17:33:29.688Z,10.35
2018-08-20T17:35:58.577Z,9.93
2018-08-20T17:38:27.432Z,9.18
2018-08-20T17:40:56.446Z,11.73
2018-08-20T17:43:25.389Z,11.10
2018-08-20T17:45:56.183Z,10.03
2018-08-20T17:48:31.247Z,8.48
2018-08-20T17:51:00.888Z,12.45
2018-08-20T17:53:41.541Z,8.48
2018-08-20T17:56:10.410Z,13.20
2018-08-20T17:58:39.469Z,10.00
2018-08-20T18:01:08.556Z,10.75
2018-08-20T18:03:37.532Z,9.80
2018-08-20T18:06:09.573Z,12.30
2018-08-20T18:08:38.521Z,12.43
2018-08-20T18:11:08.860Z,8.65
2018-08-20T18:13:48.708Z,11.70
2018-08-20T18:16:19.846Z,10.90
2018-08-20T18:18:50.532Z,8.10
2018-08-20T18:21:19.724Z,15.53
2018-08-20T18:23:48.575Z,9.55
2018-08-20T18:26:17.389Z,10.88
2018-08-20T18:28:53.068Z,9.45
2018-08-20T18:31:25.114Z,10.13
2018-08-20T18:33:54.587Z,13.28
2018-08-20T18:36:24.771Z,15.05
2018-08-20T18:39:00.744Z,12.10
2018-08-20T18:41:50.938Z,10.35
2018-08-20T18:44:21.215Z,15.00
2018-08-20T18:46:50.639Z,10.25
2018-08-20T18:49:19.819Z,7.03
2018-08-20T18:52:13.592Z,12.80
2018-08-20T18:54:50.177Z,11.55
2018-08-20T18:57:26.269Z,10.40
2018-08-20T18:59:57.190Z,6.47
2018-08-20T19:02:50.168Z,8.60
2018-08-20T19:05:21.971Z,7.87
2018-08-20T19:07:51.272Z,6.67
2018-08-20T19:10:29.592Z,7.78
2018-08-20T19:12:58.556Z,9.43
2018-08-20T19:15:41.279Z,9.90
2018-08-20T19:18:15.556Z,9.33
2018-08-20T19:20:44.800Z,8.55
2018-08-20T19:23:13.641Z,10.25
2018-08-20T19:25:42.715Z,6.42
2018-08-20T19:28:28.832Z,9.08
2018-08-20T19:30:57.793Z,5.95
2018-08-20T19:33:29.245Z,6.15
2018-08-20T19:35:58.531Z,6.15
2018-08-20T19:38:27.381Z,8.38
2018-08-20T19:41:04.692Z,9.05
2018-08-20T19:43:38.778Z,10.28
2018-08-20T19:46:08.106Z,5.55
2018-08-20T19:48:37.001Z,6.33
2018-08-20T19:51:08.012Z,6.78
2018-08-20T19:53:36.827Z,5.17
2018-08-20T19:56:09.687Z,6.92
2018-08-20T19:58:38.503Z,5.78
2018-08-20T20:01:16.297Z,6.37
2018-08-20T20:03:46.916Z,6.25
2018-08-20T20:06:16.358Z,5.90
2018-08-20T20:08:45.304Z,5.97
2018-08-20T20:11:21.722Z,8.00
2018-08-20T20:13:52.682Z,6.80
2018-08-20T20:16:21.674Z,8.03
2018-08-20T20:18:51.111Z,10.15
2018-08-20T20:21:20.722Z,7.45
2018-08-20T20:23:49.673Z,7.37
2018-08-20T20:26:18.724Z,9.38
2018-08-20T20:28:48.586Z,10.55
2018-08-20T20:31:17.504Z,13.83
2018-08-20T20:33:46.351Z,6.12
2018-08-20T20:36:18.311Z,9.38
2018-08-20T20:38:47.618Z,6.97
2018-08-20T20:41:16.864Z,9.48
2018-08-20T20:43:45.707Z,8.23
2018-08-20T20:46:14.550Z,14.35
2018-08-20T20:48:43.811Z,16.62
2018-08-20T20:51:12.668Z,13.53
2018-08-20T20:53:41.592Z,11.53
2018-08-20T20:56:10.576Z,12.58
2018-08-20T20:58:40.209Z,13.35
2018-08-20T21:01:10.714Z,9.83
2018-08-20T21:03:42.599Z,10.23
2018-08-20T21:06:11.563Z,9.48
2018-08-20T21:08:47.827Z,14.95
2018-08-20T21:11:17.709Z,9.33
2018-08-20T21:13:47.083Z,7.30
2018-08-20T21:16:17.412Z,10.38
2018-08-20T21:18:48.987Z,7.58
2018-08-20T21:21:19.010Z,8.08
2018-08-20T21:23:47.925Z,7.70
2018-08-20T21:26:16.791Z,6.50
2018-08-20T21:28:49.912Z,8.48
2018-08-20T21:31:20.085Z,8.28
2018-08-20T21:33:52.618Z,7.42
2018-08-20T21:36:21.668Z,8.58
2018-08-20T21:38:50.563Z,6.53
2018-08-20T21:41:27.589Z,11.05
2018-08-20T21:43:56.487Z,7.40
2018-08-20T21:46:25.400Z,6.60
2018-08-20T21:48:54.403Z,9.10
2018-08-20T21:51:28.595Z,5.97
2018-08-20T21:53:57.946Z,8.05
2018-08-20T21:56:36.685Z,8.75
2018-08-20T21:59:05.642Z,6.95
2018-08-20T22:01:34.494Z,6.15
2018-08-20T22:04:07.592Z,8.03
2018-08-20T22:06:36.435Z,6.35
2018-08-20T22:09:06.076Z,7.37
2018-08-20T22:11:34.985Z,7.67
2018-08-20T22:14:03.840Z,5.92
2018-08-20T22:16:32.670Z,8.75
2018-08-20T22:19:01.536Z,6.87
2018-08-20T22:21:30.448Z,7.75
2018-08-20T22:24:00.780Z,8.53
2018-08-20T22:26:29.648Z,6.15
2018-08-20T22:28:59.119Z,7.10
2018-08-20T22:31:28.008Z,5.50
2018-08-20T22:34:02.227Z,5.40
2018-08-20T22:36:32.110Z,5.53
2018-08-20T22:39:02.177Z,5.28
2018-08-20T22:41:31.746Z,6.95
2018-08-20T22:44:00.585Z,5.53
2018-08-20T22:46:29.488Z,6.55
2018-08-20T22:49:00.381Z,7.77
2018-08-20T22:51:30.442Z,6.72
2018-08-20T22:54:00.929Z,6.20
2018-08-20T22:56:32.418Z,5.85
2018-08-20T22:59:11.304Z,10.15
2018-08-20T23:01:40.353Z,6.85
2018-08-20T23:04:09.503Z,6.00
2018-08-20T23:06:38.353Z,5.22
2018-08-20T23:09:25.762Z,9.75
2018-08-20T23:11:54.969Z,8.05
2018-08-20T23:14:23.829Z,5.35
2018-08-20T23:16:53.162Z,5.03
2018-08-20T23:19:21.999Z,8.35
2018-08-20T23:21:53.749Z,4.95
2018-08-20T23:24:22.568Z,5.60
2018-08-20T23:26:51.426Z,5.67
2018-08-20T23:29:20.313Z,6.60
2018-08-20T23:31:49.156Z,5.53
2018-08-20T23:34:17.992Z,5.60
2018-08-20T23:36:46.901Z,6.90
2018-08-20T23:39:16.772Z,5.28
2018-08-20T23:41:45.603Z,6.10
2018-08-20T23:44:16.164Z,4.93
2018-08-20T23:46:47.007Z,6.10
2018-08-20T23:49:15.839Z,5.00
2018-08-20T23:51:45.105Z,5.37
2018-08-20T23:54:14.447Z,5.30
2018-08-20T23:56:43.280Z,5.17
2018-08-20T23:59:12.147Z,5.10
